CheckWX is a tool to help pilots better visualize weather data.  It is not intended as a substitute for an official pre-flight weather briefing.

13:57:14 UTC

KRAC METAR
Batten International Airport
Racine, Wisconsin, USA
Current

1 hour ago

KRAC 261253Z AUTO 32014G26KT 10SM CLR 11/03 A2974 RMK AO2 PK WND 33026/1250 SLP072 T01060033
Observed
Apr-26 @ 12:53 UTC
Wind
  • 320° at 14 KTS
  • Gusting to 26 KTS
Visibility
10 SM
Flight Rules
VFR
Cloud Levels
  • Clear skies
Temperature
11°C / 52°F
Dewpoint
C / 37°F
Humidity
58%
Altimeter
29.74" Hg
Pressure
1007.12 hPa
Previous

2 hours ago

KRAC 261153Z AUTO 31011G18KT 10SM CLR 10/06 A2972 RMK AO2 SLP067 60000 70025 T01000056 10100 20089 53003
Observed
Apr-26 @ 11:53 UTC
Wind
  • 310° at 11 KTS
  • Gusting to 18 KTS
Visibility
10 SM
Flight Rules
VFR
Cloud Levels
  • Clear skies
Temperature
10°C / 50°F
Dewpoint
C / 43°F
Humidity
76%
Altimeter
29.72" Hg
Pressure
1006.42 hPa
24 Hour Rain
0.25"
Previous

3 hours ago

KRAC 261053Z AUTO 29006KT 10SM CLR 09/08 A2970 RMK AO2 SLP059 T00890078
Observed
Apr-26 @ 10:53 UTC
Wind
  • 290° at 6 KTS
Visibility
10 SM
Flight Rules
VFR
Cloud Levels
  • Clear skies
Temperature
C / 48°F
Dewpoint
C / 46°F
Humidity
94%
Altimeter
29.7" Hg
Pressure
1005.72 hPa